Bookmark and Share
Track history (hours):
 

Hc Nadja Maria

Last reported at 2014-Apr-24 01:15 UTC. Time now 2014-Apr-24 02:15 UTC.
Position N 38°29' W 008°56'.

Length 129 m; draft 5 m.

Type: Cargo ship. MMSI: 304204000.

NotesDate/timePositionNaut miles runAvg speedWind from/ knotsBaromVisibWave heightAir tempDewpointWater temp
2014-Apr-24 01:15N 38°29' W 008°56'0 0.0
2014-Apr-24 00:15N 38°29' W 008°56'0 0.0
2014-Apr-23 23:27N 38°29' W 008°56'0 0.0
2014-Apr-23 22:33N 38°29' W 008°56'0 0.0
2014-Apr-23 21:33N 38°29' W 008°56'0 0.0
2014-Apr-23 20:33N 38°29' W 008°56'0 0.0
2014-Apr-23 19:30N 38°29' W 008°56'0 0.0
2014-Apr-23 18:33N 38°29' W 008°56'0 0.0
2014-Apr-23 16:30N 38°29' W 008°56'0 0.0
2014-Apr-23 15:12N 38°29' W 008°56'0 0.0
2014-Apr-23 14:12N 38°29' W 008°56'0 0.0
2014-Apr-23 13:33N 38°29' W 008°56'0 0.0
2014-Apr-23 12:27N 38°29' W 008°56'0 0.0
2014-Apr-23 10:30N 38°29' W 008°56'0 0.0
2014-Apr-23 09:33N 38°29' W 008°56'0 0.0
2014-Apr-23 08:33N 38°29' W 008°56'0 0.0
2014-Apr-23 07:30N 38°29' W 008°56'0 0.0
2014-Apr-23 06:33N 38°29' W 008°56'0 0.0
2014-Apr-23 05:33N 38°29' W 008°56'0 0.0
2014-Apr-23 04:33N 38°29' W 008°56'0 0.4
2014-Apr-23 03:33N 38°30' W 008°56'1 1.5
2014-Apr-23 02:33N 38°31' W 008°54'0 0.0
2014-Apr-23 01:27N 38°31' W 008°54'0 0.0
2014-Apr-23 00:33N 38°31' W 008°54'0 0.0
2014-Apr-22 23:33N 38°31' W 008°54'0 0.0
2014-Apr-22 22:33N 38°31' W 008°54'0 0.1
2014-Apr-22 21:18N 38°31' W 008°54'0 0.0
2014-Apr-22 20:12N 38°31' W 008°54'0 0.0
2014-Apr-22 19:33N 38°31' W 008°54'0 0.0
2014-Apr-22 18:33N 38°31' W 008°54'0 0.0
2014-Apr-22 17:27N 38°31' W 008°54'0 0.0
2014-Apr-22 15:09N 38°31' W 008°54'0 0.0
2014-Apr-22 14:33N 38°31' W 008°54'0 0.0
2014-Apr-22 13:33N 38°31' W 008°54'0 0.0
2014-Apr-22 12:30N 38°31' W 008°54'0 0.0
2014-Apr-22 11:33N 38°31' W 008°54'0 0.0
2014-Apr-22 10:33N 38°31' W 008°54'0 0.1
2014-Apr-22 09:33N 38°31' W 008°54'0 0.1
2014-Apr-22 08:33N 38°31' W 008°54'0 0.0
2014-Apr-22 03:24N 38°31' W 008°54'0 0.1
2014-Apr-22 02:30N 38°31' W 008°54'0 0.0
2014-Apr-22 01:27N 38°31' W 008°54'0 0.1
2014-Apr-22 00:30N 38°31' W 008°54'0 0.1
2014-Apr-21 23:09N 38°31' W 008°54'0 0.0
2014-Apr-21 22:33N 38°31' W 008°54'0 0.1
2014-Apr-21 21:30N 38°31' W 008°54'0 0.1
2014-Apr-21 20:33N 38°30' W 008°54'0 0.0
2014-Apr-21 17:33N 38°31' W 008°54'0 0.0
2014-Apr-21 14:33N 38°31' W 008°54'0 0.1
2014-Apr-21 13:30N 38°31' W 008°54'0 0.0
2014-Apr-21 12:33N 38°31' W 008°54'0 0.2
2014-Apr-21 11:27N 38°31' W 008°54'0 0.0
2014-Apr-21 10:24N 38°31' W 008°54'0 0.0
2014-Apr-21 09:24N 38°31' W 008°54'0 0.1
2014-Apr-21 08:33N 38°30' W 008°54'3 3.2
2014-Apr-21 07:33N 38°28' W 008°57'5 5.0
2014-Apr-21 06:33N 38°24' W 009°01'3 3.0
2014-Apr-21 05:34N 38°21' W 009°02'5 5.1
2014-Apr-21 04:33N 38°17' W 009°05'4 4.3
2014-Apr-21 03:34N 38°13' W 009°07'8 8.4
2014-Apr-21 02:33N 38°05' W 009°12'1111.1
2014-Apr-21 01:33N 37°55' W 009°18'1111.0
2014-Apr-21 00:33N 37°46' W 009°25'1110.6
2014-Apr-20 23:33N 37°36' W 009°31'  

Dump ship's entire track history

sailing weather and tide predictions

Hc Nadja Maria — V2AV4 — position and weather